Time;durP1;ratioP1;P1;durP2;ratioP2;P2;SDS_P1;SDS_P2;PMS_P1;PMS_P2;Temp;Humidity;BMP_temperature;BMP_pressure;BME280_temperature;BME280_humidity;BME280_pressure;Samples;Min_cycle;Max_cycle;Signal;HPM_P1;HPM_P2
2022/03/22 00:00:09;;;;;;;45.85;33.05;;;5.30;99.90;;;;;;5039174;28;20040;-84
2022/03/22 00:02:35;;;;;;;48.03;33.72;;;5.30;99.90;;;;;;5035926;28;20476;-84
2022/03/22 00:05:02;;;;;;;50.08;33.92;;;5.20;99.90;;;;;;5021992;28;20097;-84
2022/03/22 00:07:28;;;;;;;49.05;33.88;;;5.20;99.90;;;;;;5040580;28;20048;-83
2022/03/22 00:09:54;;;;;;;48.03;34.45;;;5.20;99.90;;;;;;5023087;28;20044;-84
2022/03/22 00:12:20;;;;;;;51.28;34.58;;;5.20;99.90;;;;;;5039385;28;20471;-84
2022/03/22 00:14:45;;;;;;;51.83;35.35;;;5.10;99.90;;;;;;5038687;28;20025;-84
2022/03/22 00:17:14;;;;;;;49.22;33.70;;;5.10;99.90;;;;;;5025342;28;20041;-84
2022/03/22 00:19:43;;;;;;;48.22;33.90;;;5.10;99.90;;;;;;5022946;28;20044;-84
2022/03/22 00:22:11;;;;;;;44.17;31.50;;;5.00;99.90;;;;;;5036046;28;20036;-84
2022/03/22 00:24:38;;;;;;;46.05;32.70;;;5.00;99.90;;;;;;5036416;28;20099;-84
2022/03/22 00:27:04;;;;;;;48.08;32.80;;;5.00;99.90;;;;;;5023654;28;20067;-84
2022/03/22 00:29:29;;;;;;;47.58;33.03;;;5.00;99.90;;;;;;5040916;28;20056;-83
2022/03/22 00:31:56;;;;;;;50.30;34.67;;;4.90;99.90;;;;;;5037941;28;20045;-84
2022/03/22 00:34:23;;;;;;;47.90;34.13;;;5.00;99.90;;;;;;5020771;28;20527;-83
2022/03/22 00:36:50;;;;;;;51.78;35.53;;;4.90;99.90;;;;;;5040010;28;20037;-83
2022/03/22 00:39:16;;;;;;;54.33;36.08;;;4.90;99.90;;;;;;5018394;28;20041;-84
2022/03/22 00:41:42;;;;;;;52.88;35.22;;;4.90;99.90;;;;;;5020736;28;20745;-83
2022/03/22 00:44:09;;;;;;;52.05;34.92;;;4.90;99.90;;;;;;5038203;28;20025;-84
2022/03/22 00:46:42;;;;;;;49.13;33.38;;;4.90;99.90;;;;;;5014350;28;20502;-84
2022/03/22 00:49:07;;;;;;;51.00;36.92;;;4.80;99.90;;;;;;5038558;28;20087;-83
2022/03/22 00:51:33;;;;;;;50.75;36.05;;;4.90;99.90;;;;;;5038876;28;20037;-83
2022/03/22 00:54:02;;;;;;;50.70;34.92;;;4.80;99.90;;;;;;5038423;28;20051;-84
2022/03/22 00:56:31;;;;;;;53.83;36.28;;;4.80;99.90;;;;;;5022375;28;20477;-83
2022/03/22 01:01:41;;;;;;;51.40;34.97;;;4.80;99.90;;;;;;5054325;28;20093;-83
2022/03/22 01:04:07;;;;;;;53.38;36.33;;;4.80;99.90;;;;;;5022951;28;20091;-84
2022/03/22 01:06:33;;;;;;;54.90;36.60;;;4.70;99.90;;;;;;5039490;28;20045;-83
2022/03/22 01:09:00;;;;;;;55.75;37.53;;;4.70;99.90;;;;;;5016563;28;20396;-83
2022/03/22 01:11:26;;;;;;;57.03;36.55;;;4.80;99.90;;;;;;5022942;28;20052;-83
2022/03/22 01:13:51;;;;;;;62.25;39.22;;;4.80;99.90;;;;;;5022130;28;20136;-83
2022/03/22 01:16:17;;;;;;;62.55;39.10;;;4.80;99.90;;;;;;5038473;28;20353;-83
2022/03/22 01:18:47;;;;;;;58.70;38.85;;;4.80;99.90;;;;;;5040344;28;20044;-83
2022/03/22 01:21:13;;;;;;;53.78;36.95;;;4.90;99.90;;;;;;5037099;28;20500;-83
2022/03/22 01:23:38;;;;;;;56.50;37.00;;;4.90;99.90;;;;;;5037671;28;20321;-83
2022/03/22 01:26:10;;;;;;;56.15;37.50;;;4.90;99.90;;;;;;5055339;28;20040;-83
2022/03/22 01:28:39;;;;;;;56.53;38.22;;;4.90;99.90;;;;;;5037074;28;20587;-83
2022/03/22 01:31:05;;;;;;;55.20;37.72;;;4.90;99.90;;;;;;5036513;28;20141;-84
2022/03/22 01:33:30;;;;;;;55.70;37.88;;;4.80;99.90;;;;;;5038350;28;20044;-83
2022/03/22 01:36:18;;;;;;;55.33;37.15;;;4.90;99.90;;;;;;5037120;28;20041;-83
2022/03/22 01:38:47;;;;;;;57.60;37.90;;;4.90;99.90;;;;;;5035108;28;20036;-83
2022/03/22 01:41:13;;;;;;;52.53;35.90;;;4.80;99.90;;;;;;5020653;28;20460;-83
2022/03/22 01:43:38;;;;;;;49.85;33.55;;;4.70;99.90;;;;;;5017067;28;20086;-83
2022/03/22 01:46:04;;;;;;;49.10;32.83;;;4.60;99.90;;;;;;5011878;28;20468;-83
2022/03/22 01:48:30;;;;;;;52.33;34.90;;;4.40;99.90;;;;;;5035785;28;20041;-83
2022/03/22 01:50:56;;;;;;;50.92;34.65;;;4.30;99.90;;;;;;5038012;28;20499;-83
2022/03/22 01:53:22;;;;;;;51.63;34.88;;;4.30;99.90;;;;;;5037703;28;20337;-83
2022/03/22 01:55:48;;;;;;;49.95;34.15;;;4.30;99.90;;;;;;5036053;28;20037;-83
2022/03/22 01:58:14;;;;;;;52.38;36.67;;;4.30;99.90;;;;;;5036817;28;20033;-83
2022/03/22 02:00:40;;;;;;;54.05;37.20;;;4.40;99.90;;;;;;5037259;28;20583;-83
2022/03/22 02:05:51;;;;;;;51.70;35.80;;;4.50;99.90;;;;;;5037129;28;20564;-83
2022/03/22 02:08:18;;;;;;;54.15;38.10;;;4.60;99.90;;;;;;5017084;28;20091;-82
2022/03/22 02:10:50;;;;;;;50.15;35.20;;;4.60;99.90;;;;;;5033536;28;20068;-83
2022/03/22 02:13:16;;;;;;;53.90;37.28;;;4.70;99.90;;;;;;5031388;28;20053;-83
2022/03/22 02:15:45;;;;;;;53.67;36.88;;;4.80;99.90;;;;;;5037878;28;20048;-82
2022/03/22 02:18:11;;;;;;;47.92;34.42;;;4.80;99.90;;;;;;5037673;28;20047;-83
2022/03/22 02:20:37;;;;;;;47.90;33.47;;;4.90;99.90;;;;;;5035148;28;20032;-83
2022/03/22 02:23:25;;;;;;;47.83;33.45;;;4.80;99.90;;;;;;5014052;28;20416;-83
2022/03/22 02:25:51;;;;;;;49.75;33.90;;;4.90;99.90;;;;;;5032046;28;20520;-84
2022/03/22 02:28:19;;;;;;;51.28;35.28;;;4.90;99.90;;;;;;5036208;28;20041;-83
2022/03/22 02:30:45;;;;;;;49.35;34.30;;;5.00;99.90;;;;;;5025096;28;20079;-83
2022/03/22 02:33:11;;;;;;;52.92;35.85;;;5.00;99.90;;;;;;5017705;28;20071;-83
2022/03/22 02:35:37;;;;;;;50.10;36.03;;;5.00;99.90;;;;;;5022705;28;20048;-83
2022/03/22 02:38:04;;;;;;;50.80;35.20;;;4.90;99.90;;;;;;5034553;28;20049;-83
2022/03/22 02:40:32;;;;;;;54.47;36.35;;;4.90;99.90;;;;;;5035008;28;20102;-83
2022/03/22 02:43:00;;;;;;;50.70;36.35;;;4.90;99.90;;;;;;5024749;28;20574;-83
2022/03/22 02:45:28;;;;;;;52.28;37.08;;;4.80;99.90;;;;;;5038890;28;20167;-83
2022/03/22 02:47:53;;;;;;;50.42;35.08;;;4.70;99.90;;;;;;4998711;28;20124;-83
2022/03/22 02:50:21;;;;;;;47.78;33.78;;;4.60;99.90;;;;;;5037316;28;20144;-83
2022/03/22 02:52:49;;;;;;;54.67;35.78;;;4.60;99.90;;;;;;5035013;28;20128;-83
2022/03/22 02:55:15;;;;;;;51.53;36.38;;;4.60;99.90;;;;;;5015107;28;20136;-83
2022/03/22 02:57:44;;;;;;;54.58;37.05;;;4.60;99.90;;;;;;5011499;28;20037;-83
2022/03/22 03:00:14;;;;;;;53.00;35.90;;;4.60;99.90;;;;;;5019491;28;20029;-83
2022/03/22 03:02:47;;;;;;;51.80;36.20;;;4.50;99.90;;;;;;5019444;28;20391;-83
2022/03/22 03:05:13;;;;;;;53.88;36.38;;;4.50;99.90;;;;;;5012041;28;20544;-83
2022/03/22 03:07:59;;;;;;;51.80;35.17;;;4.60;99.90;;;;;;5031898;28;20047;-83
2022/03/22 03:10:25;;;;;;;51.13;34.65;;;4.50;99.90;;;;;;5033327;28;20036;-83
2022/03/22 03:13:02;;;;;;;55.58;37.60;;;4.40;99.90;;;;;;5037532;28;20060;-82
2022/03/22 03:15:28;;;;;;;51.55;36.00;;;4.50;99.90;;;;;;5035468;28;20487;-83
2022/03/22 03:17:54;;;;;;;54.22;37.50;;;4.40;99.90;;;;;;5021348;28;20049;-83
2022/03/22 03:20:20;;;;;;;54.08;37.75;;;4.40;99.90;;;;;;5020347;28;21136;-82
2022/03/22 03:22:57;;;;;;;56.75;37.45;;;4.40;99.90;;;;;;5029039;28;20056;-83
2022/03/22 03:25:23;;;;;;;57.70;37.08;;;4.40;99.90;;;;;;5052061;28;20040;-82
2022/03/22 03:27:49;;;;;;;50.42;35.92;;;4.40;99.90;;;;;;5013297;28;20053;-83
2022/03/22 03:30:15;;;;;;;56.20;36.05;;;4.40;99.90;;;;;;5018436;28;20187;-82
2022/03/22 03:32:41;;;;;;;52.50;34.83;;;4.30;99.90;;;;;;5036244;28;20647;-83
2022/03/22 03:35:07;;;;;;;50.88;34.42;;;4.30;99.90;;;;;;5038089;28;20305;-83
2022/03/22 03:37:36;;;;;;;52.90;36.42;;;4.20;99.90;;;;;;5035458;28;20057;-82
2022/03/22 03:40:06;;;;;;;62.33;39.38;;;4.20;99.90;;;;;;5017491;28;20052;-82
2022/03/22 03:42:32;;;;;;;54.60;36.83;;;4.30;99.90;;;;;;5018003;28;20033;-83
2022/03/22 03:47:42;;;;;;;54.33;38.17;;;4.20;99.90;;;;;;5035287;28;20040;-83
2022/03/22 03:50:08;;;;;;;52.92;35.65;;;4.30;99.90;;;;;;5032075;28;20278;-83
2022/03/22 03:52:36;;;;;;;55.10;36.38;;;4.30;99.90;;;;;;5036184;28;20025;-82
2022/03/22 03:55:03;;;;;;;58.80;38.65;;;4.20;99.90;;;;;;5034393;28;20072;-83
2022/03/22 03:57:34;;;;;;;57.58;38.30;;;4.20;99.90;;;;;;5035433;28;20044;-82
2022/03/22 03:59:59;;;;;;;57.30;39.00;;;4.20;99.90;;;;;;5012921;28;20634;-83
2022/03/22 04:02:25;;;;;;;56.85;38.10;;;4.20;99.90;;;;;;5053295;28;20045;-82
2022/03/22 04:04:52;;;;;;;55.47;37.17;;;4.20;99.90;;;;;;5037632;28;20444;-82
2022/03/22 04:07:20;;;;;;;55.08;37.53;;;4.20;99.90;;;;;;5034127;28;20077;-82
2022/03/22 04:09:46;;;;;;;56.63;40.17;;;4.10;99.90;;;;;;5047391;28;20590;-82
2022/03/22 04:12:14;;;;;;;50.67;35.85;;;4.10;99.90;;;;;;5019159;28;20041;-82
2022/03/22 04:14:40;;;;;;;56.28;39.53;;;4.00;99.90;;;;;;5035129;28;20564;-82
2022/03/22 04:17:08;;;;;;;54.38;36.42;;;4.10;99.90;;;;;;5036638;28;20170;-83
2022/03/22 04:19:42;;;;;;;58.42;37.05;;;4.10;99.90;;;;;;5020029;28;20052;-82
2022/03/22 04:22:08;;;;;;;58.65;38.00;;;4.10;99.90;;;;;;5017405;28;20048;-82
2022/03/22 04:24:34;;;;;;;53.17;36.67;;;4.00;99.90;;;;;;5035420;28;20036;-83
2022/03/22 04:32:47;;;;;;;53.85;36.80;;;4.00;99.90;;;;;;5049386;28;20090;-83
2022/03/22 04:35:18;;;;;;;57.33;38.10;;;4.00;99.90;;;;;;5037772;28;20095;-83
2022/03/22 04:37:47;;;;;;;55.20;37.53;;;3.90;99.90;;;;;;5038155;28;20303;-81
2022/03/22 04:40:14;;;;;;;56.83;37.47;;;4.00;99.90;;;;;;5014223;28;20045;-82
2022/03/22 04:42:41;;;;;;;55.20;38.78;;;3.90;99.90;;;;;;5025110;28;20405;-82
2022/03/22 04:45:08;;;;;;;54.53;37.67;;;4.00;99.90;;;;;;5035050;28;20041;-83
2022/03/22 04:47:35;;;;;;;54.55;37.38;;;3.90;99.90;;;;;;5035960;28;20073;-82
2022/03/22 04:50:01;;;;;;;56.80;38.42;;;3.90;99.90;;;;;;5023556;28;20079;-82
2022/03/22 04:58:18;;;;;;;56.70;37.45;;;3.90;99.90;;;;;;5082690;27;1266953;-81
2022/03/22 05:00:46;;;;;;;57.72;39.25;;;3.90;99.90;;;;;;5074708;28;20043;-82
2022/03/22 05:03:11;;;;;;;55.03;37.92;;;3.90;99.90;;;;;;5091616;28;20067;-82
2022/03/22 05:08:22;;;;;;;56.38;37.08;;;4.00;99.90;;;;;;5092673;28;20403;-82
2022/03/22 05:10:48;;;;;;;59.53;38.88;;;3.90;99.90;;;;;;5093577;28;20039;-82
2022/03/22 05:13:14;;;;;;;57.15;37.25;;;3.90;99.90;;;;;;5093440;28;20073;-82
2022/03/22 05:15:42;;;;;;;58.20;38.45;;;3.90;99.90;;;;;;5077017;28;20264;-82
2022/03/22 05:18:11;;;;;;;62.25;38.22;;;4.00;99.90;;;;;;5092674;28;20065;-83
2022/03/22 05:20:36;;;;;;;62.10;40.53;;;4.00;99.90;;;;;;5096484;28;20028;-82
2022/03/22 05:23:03;;;;;;;65.60;41.78;;;3.90;99.90;;;;;;5080424;28;20397;-82
2022/03/22 05:25:31;;;;;;;57.58;38.45;;;3.90;99.90;;;;;;5080662;28;20032;-82
2022/03/22 05:28:02;;;;;;;59.20;38.88;;;3.90;99.90;;;;;;5091453;28;20562;-83
2022/03/22 05:30:28;;;;;;;58.03;38.83;;;3.90;99.90;;;;;;5104986;28;20050;-82
2022/03/22 05:32:54;;;;;;;59.13;37.47;;;3.80;99.90;;;;;;5074738;28;20418;-82
2022/03/22 05:35:20;;;;;;;56.70;37.85;;;3.80;99.90;;;;;;5094276;28;20035;-82
2022/03/22 05:37:45;;;;;;;53.20;37.25;;;3.80;99.90;;;;;;5094442;28;20069;-83
2022/03/22 05:40:12;;;;;;;56.22;37.67;;;3.80;99.90;;;;;;5080667;28;20438;-82
2022/03/22 05:42:40;;;;;;;59.65;37.65;;;3.80;99.90;;;;;;5107100;27;20036;-82
2022/03/22 05:45:08;;;;;;;55.03;35.65;;;3.80;99.90;;;;;;5092833;28;20044;-82
2022/03/22 05:47:34;;;;;;;55.90;36.72;;;3.80;99.90;;;;;;5078264;28;20556;-82
2022/03/22 05:50:00;;;;;;;54.45;37.03;;;3.80;99.90;;;;;;5080750;28;20071;-82
2022/03/22 05:52:28;;;;;;;60.47;39.35;;;3.80;99.90;;;;;;5078996;28;20619;-82
2022/03/22 05:54:54;;;;;;;60.00;38.80;;;3.90;99.90;;;;;;5094520;28;20031;-82
2022/03/22 05:57:19;;;;;;;55.78;36.63;;;3.90;99.90;;;;;;5090027;28;20289;-83
2022/03/22 05:59:45;;;;;;;55.90;37.78;;;3.90;99.90;;;;;;5094381;28;20070;-82
2022/03/22 06:02:17;;;;;;;55.47;37.08;;;3.90;99.90;;;;;;5089665;28;20490;-82
2022/03/22 06:04:42;;;;;;;55.15;37.72;;;3.80;99.90;;;;;;5085547;28;20092;-82
2022/03/22 06:07:10;;;;;;;58.28;37.17;;;3.90;99.90;;;;;;5077540;28;20020;-82
2022/03/22 06:09:36;;;;;;;51.90;35.90;;;3.90;99.90;;;;;;5065692;28;20023;-82
2022/03/22 06:12:02;;;;;;;57.65;37.05;;;3.90;99.90;;;;;;5067541;28;20073;-82
2022/03/22 06:14:28;;;;;;;56.22;38.05;;;4.00;99.90;;;;;;5065601;28;20036;-82
2022/03/22 06:16:54;;;;;;;51.97;36.15;;;3.90;99.90;;;;;;5080224;28;20075;-82
2022/03/22 06:19:20;;;;;;;56.10;37.22;;;4.00;99.90;;;;;;5078912;28;20512;-82
2022/03/22 06:21:45;;;;;;;53.22;36.28;;;4.10;99.90;;;;;;5073671;28;20039;-82
2022/03/22 06:24:11;;;;;;;49.88;34.80;;;4.00;99.90;;;;;;5082260;28;20036;-82
2022/03/22 06:26:37;;;;;;;58.80;36.50;;;4.00;99.90;;;;;;5065915;28;20031;-82
2022/03/22 06:29:02;;;;;;;58.63;38.20;;;4.10;99.90;;;;;;5064239;28;20487;-82
2022/03/22 06:31:33;;;;;;;52.40;34.38;;;4.20;99.90;;;;;;5079117;28;20107;-82
2022/03/22 06:34:00;;;;;;;51.28;35.88;;;4.20;99.90;;;;;;5063996;28;20031;-82
2022/03/22 06:36:29;;;;;;;53.38;36.13;;;4.40;99.90;;;;;;5063481;28;20067;-82
2022/03/22 06:38:55;;;;;;;52.50;35.53;;;4.40;99.90;;;;;;5061960;28;20105;-83
2022/03/22 06:41:20;;;;;;;51.95;35.65;;;4.30;99.90;;;;;;5079981;28;20035;-82
2022/03/22 06:43:46;;;;;;;55.08;35.80;;;4.40;99.90;;;;;;5065324;28;20027;-82
2022/03/22 06:46:12;;;;;;;50.80;35.42;;;4.50;99.90;;;;;;5066365;28;20371;-82
2022/03/22 06:48:38;;;;;;;52.10;36.00;;;4.50;99.90;;;;;;5076599;28;20452;-82
2022/03/22 06:51:03;;;;;;;53.35;35.70;;;4.70;99.90;;;;;;5082190;28;20036;-82
2022/03/22 06:53:29;;;;;;;53.03;36.45;;;4.80;99.90;;;;;;5063889;28;20089;-82
2022/03/22 06:55:55;;;;;;;50.10;34.65;;;4.90;99.90;;;;;;5062671;28;20060;-82
2022/03/22 06:58:25;;;;;;;49.85;35.60;;;5.00;99.90;;;;;;5093873;28;20503;-83
2022/03/22 07:00:52;;;;;;;53.65;36.72;;;5.10;99.90;;;;;;5062648;28;20040;-82
2022/03/22 07:03:21;;;;;;;54.67;37.15;;;5.20;99.90;;;;;;5092524;27;20048;-82
2022/03/22 07:05:50;;;;;;;52.75;36.63;;;5.30;99.90;;;;;;5071908;28;20433;-82
2022/03/22 07:08:15;;;;;;;53.13;37.17;;;5.50;99.90;;;;;;5063844;28;20117;-82
2022/03/22 07:11:49;;;;;;;50.25;36.22;;;5.60;99.90;;;;;;5064660;28;20447;-82
2022/03/22 07:13:35;;;;;;;53.83;36.05;;;5.70;99.90;;;;;;5072595;28;20161;-82
2022/03/22 07:16:10;;;;;;;53.10;35.55;;;5.80;99.90;;;;;;5062394;28;20105;-82
2022/03/22 07:18:38;;;;;;;53.15;36.75;;;6.00;99.90;;;;;;5058587;28;20054;-83
2022/03/22 07:21:05;;;;;;;48.70;34.47;;;6.10;99.90;;;;;;5049878;28;20502;-82
2022/03/22 07:23:31;;;;;;;51.75;36.67;;;6.30;99.90;;;;;;5075699;28;20419;-82
2022/03/22 07:25:57;;;;;;;53.33;36.17;;;6.40;99.90;;;;;;5059981;28;20439;-82
2022/03/22 07:28:23;;;;;;;55.17;35.53;;;6.60;99.90;;;;;;5079988;28;20035;-82
2022/03/22 07:30:48;;;;;;;51.00;35.72;;;6.80;99.90;;;;;;5075986;28;20456;-82
2022/03/22 07:33:14;;;;;;;49.75;35.25;;;7.00;99.90;;;;;;5056410;28;20028;-82
2022/03/22 07:35:42;;;;;;;51.25;36.28;;;7.20;99.90;;;;;;5062488;28;20632;-83
2022/03/22 07:38:08;;;;;;;51.53;34.38;;;7.40;99.90;;;;;;5060613;28;20040;-82
2022/03/22 07:40:33;;;;;;;50.67;34.85;;;7.60;99.90;;;;;;5063212;28;20583;-82
2022/03/22 07:42:59;;;;;;;48.13;32.75;;;7.90;99.90;;;;;;5056268;28;20395;-83
2022/03/22 07:45:25;;;;;;;45.20;32.88;;;8.10;99.90;;;;;;5081788;28;20038;-83
2022/03/22 07:47:50;;;;;;;46.33;32.40;;;8.40;99.90;;;;;;5088708;28;20515;-82
2022/03/22 07:53:01;;;;;;;42.83;30.93;;;8.90;66.50;;;;;;5071783;28;20088;-83
2022/03/22 07:55:34;;;;;;;43.20;30.10;;;9.10;23.90;;;;;;5064181;28;20039;-83
2022/03/22 07:58:01;;;;;;;43.30;30.40;;;9.30;1.00;;;;;;5075238;28;20049;-83
2022/03/22 08:00:28;;;;;;;42.70;30.30;;;9.50;1.00;;;;;;5075833;28;20082;-83
2022/03/22 08:02:56;;;;;;;45.83;31.80;;;9.60;1.00;;;;;;5056686;28;20514;-84
2022/03/22 08:05:23;;;;;;;43.53;30.73;;;9.70;1.00;;;;;;5074436;28;20048;-83
2022/03/22 08:07:55;;;;;;;41.28;28.92;;;9.80;1.00;;;;;;5079570;28;20031;-83
2022/03/22 08:10:22;;;;;;;42.15;29.25;;;9.90;99.90;;;;;;5062730;28;20028;-83
2022/03/22 08:12:48;;;;;;;42.85;30.33;;;10.00;99.90;;;;;;5072631;28;20420;-83
2022/03/22 08:15:23;;;;;;;43.72;30.15;;;10.20;1.00;;;;;;5079913;28;20356;-84
2022/03/22 08:17:52;;;;;;;41.88;28.55;;;10.40;1.00;;;;;;5079512;28;20047;-83
2022/03/22 08:20:23;;;;;;;39.53;29.33;;;10.50;1.00;;;;;;5063972;28;20316;-83
2022/03/22 08:22:51;;;;;;;38.63;27.80;;;10.70;99.90;;;;;;5077217;28;20044;-83
2022/03/22 08:25:24;;;;;;;38.80;28.35;;;10.90;99.90;;;;;;5061435;28;20047;-84
2022/03/22 08:27:51;;;;;;;35.28;27.35;;;11.10;99.90;;;;;;5067630;28;20039;-84
2022/03/22 08:30:20;;;;;;;38.00;27.40;;;11.30;99.90;;;;;;5088565;27;20126;-84
2022/03/22 08:32:54;;;;;;;36.63;26.63;;;11.40;99.90;;;;;;5076840;28;20062;-83
2022/03/22 08:35:21;;;;;;;34.95;26.08;;;11.60;99.90;;;;;;5076049;28;20051;-84
2022/03/22 08:37:47;;;;;;;39.05;25.27;;;11.70;1.00;;;;;;5052284;28;20570;-83
2022/03/22 08:40:16;;;;;;;38.97;26.73;;;11.90;99.90;;;;;;5071846;28;20133;-83
2022/03/22 08:42:43;;;;;;;35.50;25.05;;;12.10;99.90;;;;;;5057082;28;20451;-83
2022/03/22 08:45:14;;;;;;;35.63;25.80;;;12.30;99.90;;;;;;5089778;28;20070;-84
2022/03/22 08:47:41;;;;;;;36.15;24.13;;;12.50;1.00;;;;;;5067307;28;20032;-84
2022/03/22 08:50:12;;;;;;;32.65;24.67;;;12.50;99.90;;;;;;5061961;28;20518;-84
2022/03/22 08:52:38;;;;;;;35.88;24.58;;;12.60;99.90;;;;;;5096348;28;20128;-84
2022/03/22 08:55:11;;;;;;;36.35;25.42;;;12.70;99.90;;;;;;5075977;28;20074;-84
2022/03/22 08:57:39;;;;;;;34.53;24.40;;;12.90;99.90;;;;;;5087947;28;20177;-83
2022/03/22 09:00:09;;;;;;;39.05;24.60;;;12.90;99.90;;;;;;5073869;28;20036;-84
2022/03/22 09:02:39;;;;;;;36.35;24.45;;;13.10;99.90;;;;;;5059856;28;20044;-83
2022/03/22 09:08:06;;;;;;;32.40;23.97;;;13.30;1.00;;;;;;5093175;28;20506;-84
2022/03/22 09:10:34;;;;;;;29.98;23.05;;;13.60;64.30;;;;;;5063010;28;20036;-84
2022/03/22 09:13:07;;;;;;;34.97;24.23;;;13.50;1.00;;;;;;5087800;28;20040;-85
2022/03/22 09:15:38;;;;;;;32.33;23.17;;;13.60;1.00;;;;;;5061446;28;20055;-84
2022/03/22 09:18:04;;;;;;;36.60;24.27;;;13.60;1.00;;;;;;5072039;28;20048;-84
2022/03/22 09:20:32;;;;;;;33.90;23.40;;;13.80;1.00;;;;;;5049114;28;20040;-84
2022/03/22 09:23:05;;;;;;;35.42;23.15;;;13.90;1.00;;;;;;5061774;28;20433;-84
2022/03/22 09:25:30;;;;;;;32.67;22.80;;;14.00;1.00;;;;;;5070855;28;20028;-84
2022/03/22 09:28:00;;;;;;;30.35;23.15;;;14.00;99.90;;;;;;5062494;28;20032;-84
2022/03/22 09:30:26;;;;;;;33.22;23.75;;;14.20;1.00;;;;;;5074218;28;20195;-83
2022/03/22 09:33:02;;;;;;;32.88;23.45;;;14.20;1.00;;;;;;5061138;28;20039;-85
2022/03/22 09:35:31;;;;;;;29.10;22.10;;;14.50;1.00;;;;;;5076494;28;20050;-84
2022/03/22 09:38:05;;;;;;;31.17;22.35;;;14.60;1.00;;;;;;5078523;28;20047;-84
2022/03/22 09:40:35;;;;;;;30.25;22.00;;;14.80;99.90;;;;;;5070821;28;20051;-84
2022/03/22 09:43:01;;;;;;;29.23;21.38;;;14.90;1.00;;;;;;5062592;28;20105;-85
2022/03/22 09:45:29;;;;;;;33.97;22.40;;;15.00;1.00;;;;;;5064181;28;20486;-85
2022/03/22 09:47:59;;;;;;;32.10;21.95;;;15.00;99.90;;;;;;5063467;28;20051;-84
2022/03/22 09:53:13;;;;;;;28.95;22.27;;;15.10;99.90;;;;;;5041293;28;20054;-84
2022/03/22 09:55:40;;;;;;;31.52;22.92;;;15.20;99.90;;;;;;5094378;27;20355;-85
2022/03/22 09:58:05;;;;;;;29.95;22.27;;;15.40;99.90;;;;;;5075847;28;20090;-85
2022/03/22 10:00:31;;;;;;;33.42;22.38;;;15.40;99.90;;;;;;5075724;28;20075;-84
2022/03/22 10:02:57;;;;;;;28.70;21.65;;;15.50;99.90;;;;;;5065145;28;20036;-84
2022/03/22 10:05:29;;;;;;;30.50;21.77;;;15.80;1.00;;;;;;5064299;28;20065;-84
2022/03/22 10:08:21;;;;;;;25.80;20.52;;;15.90;1.00;;;;;;5063880;28;20101;-86
2022/03/22 10:11:20;;;;;;;28.80;21.15;;;15.80;99.90;;;;;;5061226;28;20457;-85
2022/03/22 10:13:55;;;;;;;28.92;21.92;;;16.00;99.90;;;;;;5058431;28;20035;-85
2022/03/22 10:16:24;;;;;;;28.20;21.02;;;16.00;99.90;;;;;;5064575;28;20509;-85
2022/03/22 10:18:50;;;;;;;29.70;20.95;;;16.20;99.90;;;;;;5057071;28;20068;-85
2022/03/22 10:21:18;;;;;;;29.90;21.17;;;16.20;99.90;;;;;;5060784;28;20063;-85
2022/03/22 10:23:58;;;;;;;28.50;22.73;;;16.10;99.90;;;;;;5064614;28;20660;-86
2022/03/22 10:26:35;;;;;;;29.98;21.85;;;16.30;99.90;;;;;;5065519;28;20483;-84
2022/03/22 10:29:04;;;;;;;31.60;21.83;;;16.50;99.90;;;;;;5071673;28;20050;-85
2022/03/22 10:31:34;;;;;;;30.55;21.45;;;16.60;99.90;;;;;;5063978;28;20028;-85
2022/03/22 10:34:01;;;;;;;31.85;20.98;;;16.70;99.90;;;;;;5066050;28;20224;-85
2022/03/22 10:36:35;;;;;;;31.45;21.25;;;16.80;99.90;;;;;;5064756;28;20044;-84
2022/03/22 10:39:06;;;;;;;26.88;20.38;;;16.90;99.90;;;;;;5081748;28;20472;-85
2022/03/22 10:41:38;;;;;;;30.15;21.45;;;17.10;99.90;;;;;;5061229;28;20051;-85
2022/03/22 10:44:23;;;;;;;28.88;20.58;;;17.30;99.90;;;;;;5062808;28;20744;-86
2022/03/22 10:46:49;;;;;;;28.30;21.20;;;17.20;99.90;;;;;;5053745;28;20048;-85
2022/03/22 10:49:22;;;;;;;29.35;20.58;;;17.30;99.90;;;;;;5062423;28;20035;-85
2022/03/22 10:52:07;;;;;;;31.13;20.42;;;17.60;99.90;;;;;;5064281;28;20414;-85
2022/03/22 10:54:33;;;;;;;;;;;17.70;99.90;;;;;;5086714;28;20101;-84
2022/03/22 10:57:00;;;;;;;26.17;19.10;;;17.90;99.90;;;;;;5075773;28;19955;-84
2022/03/22 10:59:29;;;;;;;28.95;19.45;;;18.00;99.90;;;;;;5062542;28;20499;-85
2022/03/22 11:01:57;;;;;;;25.65;18.55;;;18.20;99.90;;;;;;5056664;28;20039;-85
2022/03/22 11:04:26;;;;;;;26.50;18.73;;;18.20;99.90;;;;;;5056445;28;20039;-86
2022/03/22 11:06:54;;;;;;;28.27;19.50;;;18.50;99.90;;;;;;5081185;28;20450;-85
2022/03/22 11:09:26;;;;;;;24.52;18.30;;;18.50;99.90;;;;;;5062790;28;20035;-85
2022/03/22 11:11:51;;;;;;;27.02;18.55;;;18.70;99.90;;;;;;5076537;28;20053;-86
2022/03/22 11:14:20;;;;;;;27.48;18.95;;;18.70;99.90;;;;;;5074227;28;20040;-85
2022/03/22 11:16:51;;;;;;;29.35;19.55;;;18.90;99.90;;;;;;5058925;28;20463;-86
2022/03/22 11:19:20;;;;;;;30.88;19.20;;;18.90;99.90;;;;;;5084691;28;20394;-85
2022/03/22 11:21:49;;;;;;;30.25;19.95;;;19.10;99.90;;;;;;5070033;28;20032;-85
2022/03/22 11:24:23;;;;;;;31.52;20.13;;;18.90;99.90;;;;;;5062139;28;20395;-86
2022/03/22 11:26:53;;;;;;;26.65;19.30;;;18.80;99.90;;;;;;5079399;28;20032;-85
2022/03/22 11:29:20;;;;;;;27.92;19.45;;;19.30;99.90;;;;;;5056727;28;20096;-86
2022/03/22 11:34:32;;;;;;;29.48;19.58;;;19.40;99.90;;;;;;5065433;28;20051;-86
2022/03/22 11:36:59;;;;;;;28.70;19.85;;;19.60;99.90;;;;;;5059343;28;20166;-86
2022/03/22 11:42:24;;;;;;;28.58;19.55;;;19.70;99.90;;;;;;5078518;28;20052;-86
2022/03/22 11:44:58;;;;;;;31.00;20.67;;;19.80;99.90;;;;;;5071250;28;20039;-86
2022/03/22 11:47:27;;;;;;;29.02;20.65;;;20.00;99.90;;;;;;5093566;27;20391;-86
2022/03/22 11:50:04;;;;;;;28.20;20.10;;;19.80;99.90;;;;;;5076321;28;20308;-86
2022/03/22 11:52:35;;;;;;;27.58;18.70;;;19.90;99.90;;;;;;5064932;28;20100;-86
2022/03/22 11:55:07;;;;;;;23.77;17.65;;;20.30;99.90;;;;;;5059498;28;20035;-85
2022/03/22 11:57:52;;;;;;;27.95;17.88;;;20.30;99.90;;;;;;5057970;28;20545;-87
2022/03/22 12:01:00;;;;;;;26.83;17.83;;;20.30;99.90;;;;;;5080739;28;20043;-86
2022/03/22 12:03:33;;;;;;;25.48;17.52;;;20.40;99.90;;;;;;5076227;28;20040;-86
2022/03/22 12:06:13;;;;;;;27.17;18.10;;;20.30;99.90;;;;;;5062379;28;20529;-86
2022/03/22 12:08:41;;;;;;;27.05;19.27;;;20.50;99.90;;;;;;5062101;28;20067;-87
2022/03/22 12:11:06;;;;;;;25.85;18.80;;;20.50;99.90;;;;;;5063761;28;20063;-86
2022/03/22 12:13:47;;;;;;;25.52;19.40;;;20.80;99.90;;;;;;5060595;28;20499;-86
2022/03/22 12:16:13;;;;;;;25.35;18.73;;;20.80;99.90;;;;;;5074821;28;20491;-87
2022/03/22 12:18:41;;;;;;;28.08;19.52;;;21.10;99.90;;;;;;5063430;28;20050;-87
2022/03/22 12:21:19;;;;;;;30.45;20.05;;;20.80;99.90;;;;;;5077112;28;20040;-87
2022/03/22 12:23:49;;;;;;;29.08;19.60;;;20.80;99.90;;;;;;5056513;28;20039;-86
2022/03/22 12:26:15;;;;;;;29.38;19.15;;;21.10;99.90;;;;;;5062707;28;20114;-86
2022/03/22 12:28:51;;;;;;;27.45;19.58;;;21.20;99.90;;;;;;5062680;28;20027;-87
2022/03/22 12:31:21;;;;;;;25.85;17.90;;;21.00;99.90;;;;;;5055050;28;20042;-86
2022/03/22 12:33:51;;;;;;;25.63;17.83;;;21.30;99.90;;;;;;5071747;28;20046;-88
2022/03/22 12:36:22;;;;;;;28.20;18.38;;;21.20;99.90;;;;;;5079593;28;20261;-88
2022/03/22 12:38:48;;;;;;;27.23;18.52;;;20.80;99.90;;;;;;5050036;28;20061;-87
2022/03/22 12:41:15;;;;;;;30.08;19.17;;;21.20;99.90;;;;;;5058719;28;20197;-87
2022/03/22 12:43:47;;;;;;;27.42;19.40;;;21.30;99.90;;;;;;5062868;28;20111;-87
2022/03/22 12:46:16;;;;;;;26.48;16.67;;;21.30;99.90;;;;;;5079079;28;20785;-87
2022/03/22 12:48:41;;;;;;;23.65;16.60;;;21.50;99.90;;;;;;5057190;28;20039;-86
2022/03/22 12:51:12;;;;;;;25.13;16.40;;;21.40;99.90;;;;;;5072757;28;20040;-86
2022/03/22 12:53:48;;;;;;;25.17;16.23;;;21.40;99.90;;;;;;5077489;28;20051;-87
2022/03/22 12:56:18;;;;;;;21.98;16.55;;;21.70;99.90;;;;;;5062397;28;20039;-88
2022/03/22 12:58:44;;;;;;;24.77;17.45;;;21.40;99.90;;;;;;5052917;28;20052;-87
2022/03/22 13:01:19;;;;;;;24.13;17.30;;;21.80;99.90;;;;;;5087423;28;20077;-87
2022/03/22 13:03:52;;;;;;;25.85;17.55;;;21.50;99.90;;;;;;5077943;28;20040;-88
2022/03/22 13:06:22;;;;;;;25.55;16.27;;;21.60;99.90;;;;;;5058829;28;20449;-87
2022/03/22 13:11:35;;;;;;;24.85;16.92;;;22.10;99.90;;;;;;5076213;28;20114;-87
2022/03/22 13:16:54;;;;;;;25.55;17.83;;;22.20;99.90;;;;;;5074834;28;20124;-87
2022/03/22 13:19:31;;;;;;;29.52;17.90;;;22.10;99.90;;;;;;5076695;28;20553;-87
2022/03/22 13:21:56;;;;;;;25.10;16.98;;;22.30;99.90;;;;;;5081762;28;20087;-88